Time;durP1;ratioP1;P1;durP2;ratioP2;P2;SDS_P1;SDS_P2;PMS_P1;PMS_P2;Temp;Humidity;BMP_temperature;BMP_pressure;BME280_temperature;BME280_humidity;BME280_pressure;Samples;Min_cycle;Max_cycle;Signal;HPM_P1;HPM_P2
2021/04/21 00:02:13;;;;;;;0.10;0.10;;;;;;;;;;5115605;28;20373;-76
2021/04/21 00:04:38;;;;;;;0.10;0.10;;;;;;;;;;5118965;28;20243;-76
2021/04/21 00:07:04;;;;;;;0.10;0.10;;;;;;;;;;5121963;28;20208;-76
2021/04/21 00:09:31;;;;;;;0.10;0.10;;;;;;;;;;5106461;28;20201;-76
2021/04/21 00:11:58;;;;;;;0.10;0.10;;;;;;;;;;5112011;28;20202;-76
2021/04/21 00:14:25;;;;;;;0.10;0.10;;;;;;;;;;5107372;28;20238;-77
2021/04/21 00:16:53;;;;;;;0.10;0.10;;;;;;;;;;5120040;28;20477;-75
2021/04/21 00:19:19;;;;;;;0.10;0.10;;;;;;;;;;5118218;28;20203;-75
2021/04/21 00:21:46;;;;;;;0.10;0.10;;;;;;;;;;5116316;28;20228;-76
2021/04/21 00:24:12;;;;;;;0.10;0.10;;;;;;;;;;5107755;28;20201;-75
2021/04/21 00:26:38;;;;;;;0.10;0.10;;;;;;;;;;5107489;28;20377;-75
2021/04/21 00:29:05;;;;;;;0.10;0.10;;;;;;;;;;5112789;28;20202;-75
2021/04/21 00:31:31;;;;;;;0.10;0.10;;;;;;;;;;5107358;28;20203;-76
2021/04/21 00:33:58;;;;;;;0.10;0.10;;;;;;;;;;5118367;28;20360;-77
2021/04/21 00:36:25;;;;;;;0.10;0.10;;;;;;;;;;5111770;27;20210;-77
2021/04/21 00:38:51;;;;;;;0.10;0.10;;;;;;;;;;5119721;28;20205;-76
2021/04/21 00:41:24;;;;;;;0.10;0.10;;;;;;;;;;5126977;28;20208;-76
2021/04/21 00:43:52;;;;;;;0.10;0.10;;;;;;;;;;5114727;28;20385;-76
2021/04/21 00:46:21;;;;;;;0.10;0.10;;;;;;;;;;5112507;28;20246;-76
2021/04/21 00:48:51;;;;;;;0.10;0.10;;;;;;;;;;5128079;28;20206;-77
2021/04/21 00:51:22;;;;;;;0.10;0.10;;;;;;;;;;5117575;28;20511;-76
2021/04/21 00:53:49;;;;;;;0.10;0.10;;;;;;;;;;5113891;28;20205;-76
2021/04/21 00:56:20;;;;;;;0.10;0.10;;;;;;;;;;5116671;28;20214;-76
2021/04/21 00:58:48;;;;;;;0.10;0.10;;;;;;;;;;5120866;28;20196;-76
2021/04/21 01:01:15;;;;;;;0.10;0.10;;;;;;;;;;5116595;28;20204;-76
2021/04/21 01:03:42;;;;;;;0.10;0.10;;;;;;;;;;5118841;27;20204;-76
2021/04/21 01:06:10;;;;;;;0.10;0.10;;;;;;;;;;5122792;28;20211;-75
2021/04/21 01:08:38;;;;;;;0.13;0.13;;;;;;;;;;5127047;27;20439;-75
2021/04/21 01:11:05;;;;;;;0.10;0.10;;;;;;;;;;5119529;27;20587;-75
2021/04/21 01:13:34;;;;;;;0.10;0.10;;;;;;;;;;5124492;27;20205;-75
2021/04/21 01:16:01;;;;;;;0.10;0.10;;;;;;;;;;5106966;28;20265;-75
2021/04/21 01:18:28;;;;;;;0.10;0.10;;;;;;;;;;5106526;28;20196;-75
2021/04/21 01:20:58;;;;;;;0.10;0.10;;;;;;;;;;5115672;28;20203;-75
2021/04/21 01:23:45;;;;;;;0.10;0.10;;;;;;;;;;5113001;28;20418;-75
2021/04/21 01:26:17;;;;;;;0.10;0.10;;;;;;;;;;5111762;28;20218;-75
2021/04/21 01:28:46;;;;;;;0.17;0.17;;;;;;;;;;5112481;28;20428;-75
2021/04/21 01:31:13;;;;;;;0.10;0.10;;;;;;;;;;5120431;28;20208;-77
2021/04/21 01:33:40;;;;;;;0.10;0.10;;;;;;;;;;5117792;27;20212;-76
2021/04/21 01:36:08;;;;;;;0.13;0.13;;;;;;;;;;5128977;27;20206;-77
2021/04/21 01:38:35;;;;;;;0.10;0.10;;;;;;;;;;5116762;28;20206;-76
2021/04/21 01:41:03;;;;;;;0.10;0.10;;;;;;;;;;5115224;27;20199;-75
2021/04/21 01:43:34;;;;;;;0.10;0.10;;;;;;;;;;5117169;28;20224;-74
2021/04/21 01:46:03;;;;;;;0.10;0.10;;;;;;;;;;5113790;27;20200;-77
2021/04/21 01:48:29;;;;;;;0.10;0.10;;;;;;;;;;5114715;28;20498;-77
2021/04/21 01:50:55;;;;;;;0.10;0.10;;;;;;;;;;5113923;28;20255;-75
2021/04/21 01:53:24;;;;;;;0.10;0.10;;;;;;;;;;5112559;28;20200;-75
2021/04/21 01:55:56;;;;;;;0.10;0.10;;;;;;;;;;5109192;28;20213;-76
2021/04/21 01:58:30;;;;;;;0.10;0.10;;;;;;;;;;5126033;27;20491;-76
2021/04/21 02:00:59;;;;;;;0.10;0.10;;;;;;;;;;5125282;27;20256;-75
2021/04/21 02:03:27;;;;;;;0.10;0.10;;;;;;;;;;5112241;28;20228;-75
2021/04/21 02:06:00;;;;;;;0.10;0.10;;;;;;;;;;5115020;28;20209;-76
2021/04/21 02:08:29;;;;;;;0.10;0.10;;;;;;;;;;5115026;28;20246;-75
2021/04/21 02:10:58;;;;;;;0.10;0.10;;;;;;;;;;5110175;28;20199;-75
2021/04/21 02:13:32;;;;;;;0.10;0.10;;;;;;;;;;5114149;28;20198;-76
2021/04/21 02:16:09;;;;;;;0.10;0.10;;;;;;;;;;5120022;28;20200;-76
2021/04/21 02:18:44;;;;;;;0.10;0.10;;;;;;;;;;5111687;27;20198;-75
2021/04/21 02:21:14;;;;;;;0.10;0.10;;;;;;;;;;5117824;28;20198;-75
2021/04/21 02:23:44;;;;;;;0.10;0.10;;;;;;;;;;5112714;28;20231;-74
2021/04/21 02:26:15;;;;;;;0.10;0.10;;;;;;;;;;5116388;28;20261;-75
2021/04/21 02:28:49;;;;;;;0.10;0.10;;;;;;;;;;5107891;28;20249;-75
2021/04/21 02:31:21;;;;;;;0.10;0.10;;;;;;;;;;5108974;28;20197;-75
2021/04/21 02:33:52;;;;;;;0.10;0.10;;;;;;;;;;5111018;28;20220;-75
2021/04/21 02:36:23;;;;;;;0.10;0.10;;;;;;;;;;5113103;28;20258;-76
2021/04/21 02:38:52;;;;;;;0.20;0.20;;;;;;;;;;5118766;27;20198;-75
2021/04/21 02:41:19;;;;;;;0.10;0.10;;;;;;;;;;5111808;28;20202;-76
2021/04/21 02:43:50;;;;;;;0.10;0.10;;;;;;;;;;5115999;27;20214;-76
2021/04/21 02:46:18;;;;;;;0.10;0.10;;;;;;;;;;5111219;28;20194;-75
2021/04/21 02:48:46;;;;;;;0.10;0.10;;;;;;;;;;5110387;28;20205;-75
2021/04/21 02:51:17;;;;;;;0.10;0.10;;;;;;;;;;5112365;28;20369;-75
2021/04/21 02:53:45;;;;;;;0.10;0.10;;;;;;;;;;5107618;28;20482;-75
2021/04/21 02:56:14;;;;;;;0.10;0.10;;;;;;;;;;5117701;28;20225;-76
2021/04/21 02:58:44;;;;;;;0.10;0.10;;;;;;;;;;5117279;28;20466;-75
2021/04/21 03:01:12;;;;;;;0.10;0.10;;;;;;;;;;5115694;27;20408;-76
2021/04/21 03:03:47;;;;;;;0.10;0.10;;;;;;;;;;5112291;28;20279;-76
2021/04/21 03:06:17;;;;;;;0.10;0.10;;;;;;;;;;5118502;27;20195;-76
2021/04/21 03:08:47;;;;;;;0.10;0.10;;;;;;;;;;5110711;28;20198;-74
2021/04/21 03:11:13;;;;;;;0.20;0.20;;;;;;;;;;5117394;27;20192;-75
2021/04/21 03:13:44;;;;;;;0.10;0.10;;;;;;;;;;5112091;28;20251;-76
2021/04/21 03:16:12;;;;;;;0.10;0.10;;;;;;;;;;5118506;27;20199;-76
2021/04/21 03:18:41;;;;;;;0.10;0.10;;;;;;;;;;5116250;28;20505;-75
2021/04/21 03:21:09;;;;;;;0.20;0.20;;;;;;;;;;5115174;28;20224;-75
2021/04/21 03:23:38;;;;;;;0.10;0.10;;;;;;;;;;5112814;28;20254;-76
2021/04/21 03:26:04;;;;;;;0.20;0.20;;;;;;;;;;5117028;28;20965;-75
2021/04/21 03:28:31;;;;;;;0.10;0.10;;;;;;;;;;5114629;27;20425;-76
2021/04/21 03:30:58;;;;;;;0.10;0.10;;;;;;;;;;5116543;28;20205;-75
2021/04/21 03:33:25;;;;;;;0.10;0.10;;;;;;;;;;5113801;28;20493;-75
2021/04/21 03:35:52;;;;;;;0.20;0.20;;;;;;;;;;5117532;28;20240;-75
2021/04/21 03:38:18;;;;;;;0.10;0.10;;;;;;;;;;5113813;28;20201;-75
2021/04/21 03:40:44;;;;;;;0.10;0.10;;;;;;;;;;5112485;27;20258;-73
2021/04/21 03:43:11;;;;;;;0.10;0.10;;;;;;;;;;5111611;28;20245;-75
2021/04/21 03:45:38;;;;;;;0.10;0.10;;;;;;;;;;5106492;28;20211;-75
2021/04/21 03:48:04;;;;;;;0.10;0.10;;;;;;;;;;5114057;28;20232;-75
2021/04/21 03:50:30;;;;;;;0.10;0.10;;;;;;;;;;5112119;28;20210;-75
2021/04/21 03:52:57;;;;;;;0.20;0.20;;;;;;;;;;5118287;28;20193;-75
2021/04/21 03:55:23;;;;;;;0.10;0.10;;;;;;;;;;5118236;28;20198;-75
2021/04/21 03:57:50;;;;;;;0.10;0.10;;;;;;;;;;5126876;28;20198;-75
2021/04/21 04:00:17;;;;;;;0.10;0.10;;;;;;;;;;5113788;28;20221;-74
2021/04/21 04:02:46;;;;;;;0.10;0.10;;;;;;;;;;5109032;28;20240;-75
2021/04/21 04:05:12;;;;;;;0.10;0.10;;;;;;;;;;5113121;28;20205;-74
2021/04/21 04:07:40;;;;;;;0.10;0.10;;;;;;;;;;5115588;28;20202;-74
2021/04/21 04:10:08;;;;;;;0.10;0.10;;;;;;;;;;5110890;28;20221;-75
2021/04/21 04:12:35;;;;;;;0.10;0.10;;;;;;;;;;5112095;28;20242;-75
2021/04/21 04:15:01;;;;;;;0.10;0.10;;;;;;;;;;5107871;28;20217;-75
2021/04/21 04:17:30;;;;;;;0.17;0.17;;;;;;;;;;5114610;28;20494;-77
2021/04/21 04:19:59;;;;;;;0.10;0.10;;;;;;;;;;5109349;28;20217;-76
2021/04/21 04:22:28;;;;;;;0.10;0.10;;;;;;;;;;5112829;28;20535;-75
2021/04/21 04:24:55;;;;;;;0.20;0.20;;;;;;;;;;5109983;28;20203;-75
2021/04/21 04:27:21;;;;;;;0.10;0.10;;;;;;;;;;5109785;28;20277;-76
2021/04/21 04:29:48;;;;;;;0.10;0.10;;;;;;;;;;5112902;28;20534;-76
2021/04/21 04:32:14;;;;;;;0.10;0.10;;;;;;;;;;5115991;28;20194;-75
2021/04/21 04:34:43;;;;;;;0.10;0.10;;;;;;;;;;5110697;28;20210;-76
2021/04/21 04:37:10;;;;;;;0.10;0.10;;;;;;;;;;5111132;28;20206;-74
2021/04/21 04:39:36;;;;;;;0.13;0.13;;;;;;;;;;5112044;28;20494;-75
2021/04/21 04:42:02;;;;;;;0.10;0.10;;;;;;;;;;5120462;28;20226;-76
2021/04/21 04:44:29;;;;;;;0.20;0.20;;;;;;;;;;5114784;28;20206;-75
2021/04/21 04:46:59;;;;;;;0.20;0.20;;;;;;;;;;5116732;28;20427;-75
2021/04/21 04:49:27;;;;;;;0.20;0.20;;;;;;;;;;5111649;28;20415;-75
2021/04/21 04:51:55;;;;;;;0.10;0.10;;;;;;;;;;5112096;28;20500;-74
2021/04/21 04:54:21;;;;;;;0.17;0.17;;;;;;;;;;5110297;28;20224;-76
2021/04/21 04:56:47;;;;;;;0.10;0.10;;;;;;;;;;5112045;28;20202;-76
2021/04/21 04:59:13;;;;;;;0.10;0.10;;;;;;;;;;5118818;28;20225;-76
2021/04/21 05:01:44;;;;;;;0.10;0.10;;;;;;;;;;5114920;28;20288;-75
2021/04/21 05:04:11;;;;;;;0.20;0.20;;;;;;;;;;5109328;28;20251;-76
2021/04/21 05:06:39;;;;;;;0.10;0.10;;;;;;;;;;5112978;28;20201;-75
2021/04/21 05:09:08;;;;;;;0.17;0.17;;;;;;;;;;5112867;28;20198;-76
2021/04/21 05:11:34;;;;;;;0.17;0.17;;;;;;;;;;5112215;28;20205;-75
2021/04/21 05:14:01;;;;;;;0.20;0.20;;;;;;;;;;5116464;28;20492;-75
2021/04/21 05:16:45;;;;;;;0.20;0.20;;;;;;;;;;5117524;27;20198;-75
2021/04/21 05:19:26;;;;;;;0.13;0.13;;;;;;;;;;5109430;28;20469;-76
2021/04/21 05:22:15;;;;;;;2.63;2.53;;;;;;;;;;5115918;27;20244;-75
2021/04/21 05:25:15;;;;;;;0.10;0.10;;;;;;;;;;5112600;27;20490;-75
2021/04/21 05:27:59;;;;;;;0.10;0.10;;;;;;;;;;5112611;28;20198;-76
2021/04/21 05:30:44;;;;;;;0.10;0.10;;;;;;;;;;5111390;27;20206;-77
2021/04/21 05:33:31;;;;;;;0.47;0.47;;;;;;;;;;5114790;28;20197;-75
2021/04/21 05:36:23;;;;;;;2.37;2.27;;;;;;;;;;5110000;28;20251;-76
2021/04/21 05:39:10;;;;;;;0.10;0.10;;;;;;;;;;5114681;28;20195;-76
2021/04/21 05:42:03;;;;;;;0.10;0.10;;;;;;;;;;5085836;27;20209;-76
2021/04/21 05:44:55;;;;;;;0.20;0.20;;;;;;;;;;5117998;27;20205;-76
2021/04/21 05:47:40;;;;;;;0.10;0.10;;;;;;;;;;5110294;28;20353;-75
2021/04/21 05:50:36;;;;;;;0.13;0.13;;;;;;;;;;5122982;27;20212;-75
2021/04/21 05:53:28;;;;;;;0.10;0.10;;;;;;;;;;5110531;28;20490;-77
2021/04/21 05:56:15;;;;;;;0.10;0.10;;;;;;;;;;5113469;27;20211;-76
2021/04/21 05:59:02;;;;;;;0.10;0.10;;;;;;;;;;5102961;28;20493;-76
2021/04/21 06:01:30;;;;;;;0.10;0.10;;;;;;;;;;5109739;27;20394;-76
2021/04/21 06:03:56;;;;;;;0.20;0.20;;;;;;;;;;5131637;27;20225;-76
2021/04/21 06:06:22;;;;;;;0.20;0.20;;;;;;;;;;5117777;27;20213;-76
2021/04/21 06:08:48;;;;;;;0.20;0.20;;;;;;;;;;5122564;27;20341;-75
2021/04/21 06:11:18;;;;;;;0.10;0.10;;;;;;;;;;5119816;28;20280;-76
2021/04/21 06:13:44;;;;;;;0.20;0.20;;;;;;;;;;5117468;27;20206;-73
2021/04/21 06:16:11;;;;;;;0.17;0.17;;;;;;;;;;5118800;28;20205;-75
2021/04/21 06:18:38;;;;;;;0.10;0.10;;;;;;;;;;5120200;28;20218;-73
2021/04/21 06:21:14;;;;;;;0.10;0.10;;;;;;;;;;5125918;27;20206;-77
2021/04/21 06:23:40;;;;;;;0.10;0.10;;;;;;;;;;5117951;28;20250;-75
2021/04/21 06:26:05;;;;;;;0.10;0.10;;;;;;;;;;5122827;28;20300;-76
2021/04/21 06:28:31;;;;;;;0.20;0.20;;;;;;;;;;5118322;28;20210;-77
2021/04/21 06:31:02;;;;;;;0.10;0.10;;;;;;;;;;5126041;28;20250;-76
2021/04/21 06:33:31;;;;;;;0.40;0.40;;;;;;;;;;5122139;28;20201;-76
2021/04/21 06:35:58;;;;;;;0.10;0.10;;;;;;;;;;5119232;27;20408;-76
2021/04/21 06:38:27;;;;;;;0.10;0.10;;;;;;;;;;5112389;27;20527;-78
2021/04/21 06:40:52;;;;;;;0.10;0.10;;;;;;;;;;5117098;27;20210;-76
2021/04/21 06:43:22;;;;;;;0.10;0.10;;;;;;;;;;5116334;28;20388;-76
2021/04/21 06:45:50;;;;;;;0.10;0.10;;;;;;;;;;5124417;27;20199;-77
2021/04/21 06:48:16;;;;;;;0.10;0.10;;;;;;;;;;5105690;28;20247;-75
2021/04/21 06:50:42;;;;;;;0.20;0.20;;;;;;;;;;5111300;28;20240;-73
2021/04/21 06:53:11;;;;;;;0.10;0.10;;;;;;;;;;5125574;28;20424;-75
2021/04/21 06:55:37;;;;;;;0.10;0.10;;;;;;;;;;5122252;28;20211;-74
2021/04/21 06:58:15;;;;;;;0.10;0.10;;;;;;;;;;5121673;28;20204;-75
2021/04/21 07:00:40;;;;;;;0.30;0.30;;;;;;;;;;5119917;28;20204;-75
2021/04/21 07:03:07;;;;;;;0.27;0.27;;;;;;;;;;5123025;28;20255;-67
2021/04/21 07:05:34;;;;;;;0.03;0.03;;;;;;;;;;5115435;28;20204;-69
2021/04/21 07:08:04;;;;;;;0.10;0.10;;;;;;;;;;5108265;27;20221;-68
2021/04/21 07:10:31;;;;;;;0.10;0.10;;;;;;;;;;5113101;27;20226;-66
2021/04/21 07:12:57;;;;;;;0.10;0.10;;;;;;;;;;5118123;28;20499;-69
2021/04/21 07:15:23;;;;;;;0.32;0.32;;;;;;;;;;5119637;28;20197;-69
2021/04/21 07:17:50;;;;;;;0.05;0.05;;;;;;;;;;5119578;28;20204;-67
2021/04/21 07:20:16;;;;;;;0.00;0.00;;;;;;;;;;5123225;27;20207;-66
2021/04/21 07:22:42;;;;;;;0.00;0.00;;;;;;;;;;5123003;27;20251;-69
2021/04/21 07:25:09;;;;;;;0.00;0.00;;;;;;;;;;5113803;28;20214;-68
2021/04/21 07:27:36;;;;;;;0.10;0.10;;;;;;;;;;5112355;28;20217;-68
2021/04/21 07:30:02;;;;;;;0.00;0.00;;;;;;;;;;5114007;27;20203;-68
2021/04/21 07:32:31;;;;;;;0.00;0.00;;;;;;;;;;5108060;27;20202;-68
2021/04/21 07:34:58;;;;;;;0.00;0.00;;;;;;;;;;5124357;28;20495;-66
2021/04/21 07:37:37;;;;;;;0.00;0.00;;;;;;;;;;5142876;27;20205;-67
2021/04/21 07:40:18;;;;;;;0.10;0.10;;;;;;;;;;5108636;28;20223;-67
2021/04/21 07:42:45;;;;;;;0.10;0.10;;;;;;;;;;5109094;28;20289;-66
2021/04/21 07:45:11;;;;;;;0.10;0.10;;;;;;;;;;5118597;28;20449;-67
2021/04/21 07:47:37;;;;;;;0.40;0.40;;;;;;;;;;5124459;28;20205;-66
2021/04/21 07:50:04;;;;;;;0.05;0.05;;;;;;;;;;5115821;28;20229;-67
2021/04/21 07:52:30;;;;;;;0.85;0.85;;;;;;;;;;5126744;28;20299;-67
2021/04/21 07:55:07;;;;;;;0.10;0.10;;;;;;;;;;5125915;28;20485;-68
2021/04/21 07:57:33;;;;;;;0.10;0.10;;;;;;;;;;5116459;28;20201;-68
2021/04/21 08:00:00;;;;;;;0.10;0.10;;;;;;;;;;5114114;28;20220;-67
2021/04/21 08:02:30;;;;;;;0.00;0.00;;;;;;;;;;5126621;28;20247;-68
2021/04/21 08:04:56;;;;;;;0.10;0.10;;;;;;;;;;5112344;28;20197;-68
2021/04/21 08:07:32;;;;;;;0.00;0.00;;;;;;;;;;5117475;28;20380;-67
2021/04/21 08:09:58;;;;;;;0.10;0.10;;;;;;;;;;5118727;28;20217;-67
2021/04/21 08:12:25;;;;;;;0.00;0.00;;;;;;;;;;5104456;28;20502;-67
2021/04/21 08:14:52;;;;;;;0.10;0.10;;;;;;;;;;5117592;28;20214;-66
2021/04/21 08:17:20;;;;;;;0.10;0.10;;;;;;;;;;5120099;28;20280;-66
2021/04/21 08:19:46;;;;;;;0.10;0.10;;;;;;;;;;5124065;28;20274;-66
2021/04/21 08:22:13;;;;;;;0.10;0.10;;;;;;;;;;5125115;28;20222;-68
2021/04/21 08:24:45;;;;;;;0.10;0.10;;;;;;;;;;5140583;28;20203;-66
2021/04/21 08:27:12;;;;;;;0.10;0.10;;;;;;;;;;5126585;28;20202;-67
2021/04/21 08:29:38;;;;;;;0.10;0.10;;;;;;;;;;5140444;28;20204;-66
2021/04/21 08:32:05;;;;;;;0.10;0.10;;;;;;;;;;5123494;28;20272;-65
2021/04/21 08:34:35;;;;;;;0.10;0.10;;;;;;;;;;5106599;28;20490;-66
2021/04/21 08:37:01;;;;;;;0.10;0.10;;;;;;;;;;5118866;28;20244;-66
2021/04/21 08:39:27;;;;;;;0.03;0.03;;;;;;;;;;5122602;27;20212;-66
2021/04/21 08:41:56;;;;;;;0.10;0.10;;;;;;;;;;5119458;28;20203;-66
2021/04/21 08:44:22;;;;;;;0.30;0.30;;;;;;;;;;5123732;27;20202;-67
2021/04/21 08:46:49;;;;;;;0.10;0.10;;;;;;;;;;5119132;27;20508;-68
2021/04/21 08:49:16;;;;;;;3.10;2.80;;;;;;;;;;5112776;28;20403;-69
2021/04/21 08:51:43;;;;;;;0.10;0.10;;;;;;;;;;5115741;27;20199;-65
2021/04/21 08:54:10;;;;;;;11.30;2.13;;;;;;;;;;5125466;28;20210;-67
2021/04/21 08:56:36;;;;;;;0.57;0.57;;;;;;;;;;5124458;28;20198;-66
2021/04/21 08:59:04;;;;;;;0.30;0.30;;;;;;;;;;5117258;28;20245;-67
2021/04/21 09:01:30;;;;;;;2.73;2.63;;;;;;;;;;5121912;28;20199;-66
2021/04/21 09:03:56;;;;;;;0.03;0.03;;;;;;;;;;5123165;28;20229;-68
2021/04/21 09:06:22;;;;;;;0.30;0.30;;;;;;;;;;5135418;27;20240;-66
2021/04/21 09:08:51;;;;;;;0.20;0.20;;;;;;;;;;5125195;27;20208;-65
2021/04/21 09:11:17;;;;;;;0.10;0.10;;;;;;;;;;5110043;28;20278;-65
2021/04/21 09:13:43;;;;;;;0.10;0.10;;;;;;;;;;5129421;27;20222;-66
2021/04/21 09:16:10;;;;;;;0.10;0.10;;;;;;;;;;5120506;28;20203;-65
2021/04/21 09:18:36;;;;;;;0.73;0.73;;;;;;;;;;5119100;27;20221;-65
2021/04/21 09:21:03;;;;;;;0.10;0.10;;;;;;;;;;5116894;28;20218;-66
2021/04/21 09:23:34;;;;;;;0.10;0.10;;;;;;;;;;5135037;27;20242;-66
2021/04/21 09:26:01;;;;;;;0.10;0.10;;;;;;;;;;5119985;27;20208;-67
2021/04/21 09:28:37;;;;;;;0.20;0.20;;;;;;;;;;5108263;27;20271;-68
2021/04/21 09:31:02;;;;;;;0.53;0.53;;;;;;;;;;5119603;27;20194;-67
2021/04/21 09:33:29;;;;;;;0.10;0.10;;;;;;;;;;5114933;28;20195;-69
2021/04/21 09:35:56;;;;;;;0.10;0.10;;;;;;;;;;5116679;28;20203;-68
2021/04/21 09:38:24;;;;;;;0.10;0.10;;;;;;;;;;5110467;28;20232;-69
2021/04/21 09:40:52;;;;;;;0.10;0.10;;;;;;;;;;5132260;27;20204;-68
2021/04/21 09:43:22;;;;;;;0.00;0.00;;;;;;;;;;5108814;28;20246;-67
2021/04/21 09:45:48;;;;;;;0.10;0.10;;;;;;;;;;5118374;27;20497;-68
2021/04/21 09:48:16;;;;;;;0.10;0.10;;;;;;;;;;5109821;28;20203;-67
2021/04/21 09:50:42;;;;;;;0.10;0.10;;;;;;;;;;5116903;27;20203;-67
2021/04/21 09:53:33;;;;;;;0.30;0.17;;;;;;;;;;5134127;27;20210;-67
2021/04/21 09:56:00;;;;;;;0.82;0.82;;;;;;;;;;5113356;27;20272;-67
2021/04/21 09:58:28;;;;;;;0.10;0.10;;;;;;;;;;5131367;27;20199;-68
2021/04/21 10:00:55;;;;;;;0.22;0.22;;;;;;;;;;5126578;27;20211;-67
2021/04/21 10:03:21;;;;;;;0.10;0.10;;;;;;;;;;5121449;28;20529;-67
2021/04/21 10:05:47;;;;;;;0.10;0.10;;;;;;;;;;5116803;28;20240;-69
2021/04/21 10:08:14;;;;;;;0.10;0.10;;;;;;;;;;5115670;27;20377;-66
2021/04/21 10:10:41;;;;;;;0.10;0.10;;;;;;;;;;5115130;27;20195;-66
2021/04/21 10:13:14;;;;;;;0.00;0.00;;;;;;;;;;5126101;28;20198;-67
2021/04/21 10:15:41;;;;;;;0.00;0.00;;;;;;;;;;5117790;28;20270;-66
2021/04/21 10:18:08;;;;;;;0.43;0.43;;;;;;;;;;5112895;28;20239;-66
2021/04/21 10:20:34;;;;;;;0.10;0.10;;;;;;;;;;5119231;27;20202;-68
2021/04/21 10:23:00;;;;;;;0.10;0.10;;;;;;;;;;5127233;27;20554;-68
2021/04/21 10:25:26;;;;;;;0.00;0.00;;;;;;;;;;5123741;27;20200;-67
2021/04/21 10:27:53;;;;;;;0.17;0.17;;;;;;;;;;5118735;27;20207;-65
2021/04/21 10:30:19;;;;;;;0.20;0.20;;;;;;;;;;5111933;28;20204;-67
2021/04/21 10:32:47;;;;;;;0.00;0.00;;;;;;;;;;5131411;27;20195;-66
2021/04/21 10:35:13;;;;;;;0.00;0.00;;;;;;;;;;5122958;27;20223;-67
2021/04/21 10:37:40;;;;;;;0.00;0.00;;;;;;;;;;5126596;27;20206;-67
2021/04/21 10:40:06;;;;;;;0.00;0.00;;;;;;;;;;5128817;27;20274;-69
2021/04/21 10:42:46;;;;;;;0.00;0.00;;;;;;;;;;5112485;27;20238;-65
2021/04/21 10:45:13;;;;;;;0.10;0.10;;;;;;;;;;5106481;28;20423;-67
2021/04/21 10:47:43;;;;;;;1.05;1.05;;;;;;;;;;5128089;27;20205;-67
2021/04/21 10:50:11;;;;;;;0.40;0.40;;;;;;;;;;5126411;27;20446;-68
2021/04/21 10:52:38;;;;;;;0.10;0.10;;;;;;;;;;5121417;28;20223;-68
2021/04/21 10:55:20;;;;;;;0.00;0.00;;;;;;;;;;5124073;27;20230;-68
2021/04/21 10:57:54;;;;;;;0.10;0.10;;;;;;;;;;5119393;28;20205;-66
2021/04/21 11:00:25;;;;;;;0.00;0.00;;;;;;;;;;5120261;28;20284;-66
2021/04/21 11:02:56;;;;;;;0.10;0.10;;;;;;;;;;5120854;27;20220;-68
2021/04/21 11:05:28;;;;;;;0.03;0.03;;;;;;;;;;5109271;28;20231;-67
2021/04/21 11:08:00;;;;;;;0.00;0.00;;;;;;;;;;5122124;28;20229;-67
2021/04/21 11:10:33;;;;;;;0.15;0.15;;;;;;;;;;5114541;28;20205;-66
2021/04/21 11:13:00;;;;;;;0.00;0.00;;;;;;;;;;5112661;28;20197;-66
2021/04/21 11:15:36;;;;;;;0.10;0.10;;;;;;;;;;5121303;28;20205;-67
2021/04/21 11:18:12;;;;;;;0.00;0.00;;;;;;;;;;5117305;27;20202;-65
2021/04/21 11:20:51;;;;;;;0.00;0.00;;;;;;;;;;5113472;28;20207;-67
2021/04/21 11:23:32;;;;;;;0.00;0.00;;;;;;;;;;5111090;27;20347;-66
2021/04/21 11:26:12;;;;;;;0.22;0.22;;;;;;;;;;5117447;27;20204;-67
2021/04/21 11:28:56;;;;;;;0.10;0.10;;;;;;;;;;5122062;28;20246;-67
2021/04/21 11:31:23;;;;;;;0.00;0.00;;;;;;;;;;5112242;27;20192;-66
2021/04/21 11:33:50;;;;;;;0.00;0.00;;;;;;;;;;5128159;27;20530;-67
2021/04/21 11:36:35;;;;;;;0.10;0.10;;;;;;;;;;5114820;27;20527;-67
2021/04/21 11:39:02;;;;;;;0.00;0.00;;;;;;;;;;5114413;27;20398;-67
2021/04/21 11:41:38;;;;;;;0.03;0.03;;;;;;;;;;5138436;27;20199;-67
2021/04/21 11:44:04;;;;;;;0.00;0.00;;;;;;;;;;5109791;27;20461;-67
2021/04/21 11:46:48;;;;;;;0.00;0.00;;;;;;;;;;5117280;28;20202;-68
2021/04/21 11:49:24;;;;;;;0.00;0.00;;;;;;;;;;5118733;27;20198;-68
2021/04/21 11:51:51;;;;;;;0.00;0.00;;;;;;;;;;5110630;28;20202;-68
2021/04/21 11:54:17;;;;;;;0.00;0.00;;;;;;;;;;5113838;28;20347;-67
2021/04/21 11:56:43;;;;;;;0.00;0.00;;;;;;;;;;5106007;28;20222;-67
2021/04/21 11:59:09;;;;;;;0.10;0.10;;;;;;;;;;5113288;28;20325;-68
2021/04/21 12:01:35;;;;;;;0.00;0.00;;;;;;;;;;5115194;28;20202;-68
2021/04/21 12:04:10;;;;;;;0.22;0.22;;;;;;;;;;5114826;28;20218;-67
2021/04/21 12:06:36;;;;;;;0.00;0.00;;;;;;;;;;5104743;28;20386;-67
2021/04/21 12:09:03;;;;;;;0.05;0.05;;;;;;;;;;5116348;28;20202;-66
2021/04/21 12:11:34;;;;;;;0.00;0.00;;;;;;;;;;5121771;28;20225;-67
2021/04/21 12:14:00;;;;;;;0.00;0.00;;;;;;;;;;5129983;27;20197;-67
2021/04/21 12:16:28;;;;;;;0.00;0.00;;;;;;;;;;5122996;28;20344;-67
2021/04/21 12:18:54;;;;;;;0.00;0.00;;;;;;;;;;5125978;27;20199;-67
2021/04/21 12:21:22;;;;;;;0.00;0.00;;;;;;;;;;5119164;27;20207;-67
2021/04/21 12:23:48;;;;;;;0.03;0.03;;;;;;;;;;5115208;28;20289;-67
2021/04/21 12:26:17;;;;;;;0.10;0.10;;;;;;;;;;5127145;28;20209;-68
2021/04/21 12:28:45;;;;;;;0.00;0.00;;;;;;;;;;5125672;28;20226;-67
2021/04/21 12:31:11;;;;;;;0.00;0.00;;;;;;;;;;5121076;28;20325;-67
2021/04/21 12:33:37;;;;;;;0.10;0.10;;;;;;;;;;5117797;27;20198;-66
2021/04/21 12:36:04;;;;;;;0.00;0.00;;;;;;;;;;5116507;28;20359;-68
2021/04/21 12:38:31;;;;;;;0.25;0.25;;;;;;;;;;5116422;27;20308;-67
2021/04/21 12:40:58;;;;;;;0.00;0.00;;;;;;;;;;5116842;28;20216;-66
2021/04/21 12:43:27;;;;;;;0.08;0.08;;;;;;;;;;5114371;28;20253;-65
2021/04/21 12:45:53;;;;;;;0.10;0.10;;;;;;;;;;5114910;28;20210;-68
2021/04/21 12:48:22;;;;;;;0.00;0.00;;;;;;;;;;5132060;27;20200;-67
2021/04/21 12:50:49;;;;;;;0.00;0.00;;;;;;;;;;5124192;27;20214;-67
2021/04/21 12:53:15;;;;;;;0.00;0.00;;;;;;;;;;5122876;27;20207;-67
2021/04/21 12:55:41;;;;;;;0.28;0.28;;;;;;;;;;5130161;27;20438;-67
2021/04/21 12:58:07;;;;;;;0.10;0.10;;;;;;;;;;5122026;27;20312;-67
2021/04/21 13:00:34;;;;;;;0.10;0.10;;;;;;;;;;5118828;28;20212;-67
2021/04/21 13:03:00;;;;;;;0.10;0.10;;;;;;;;;;5128187;27;20237;-66
2021/04/21 13:05:41;;;;;;;0.10;0.10;;;;;;;;;;5114645;28;20199;-67
2021/04/21 13:08:17;;;;;;;0.10;0.10;;;;;;;;;;5123010;27;20211;-67
2021/04/21 13:10:43;;;;;;;0.10;0.10;;;;;;;;;;5116707;28;20487;-68
2021/04/21 13:13:09;;;;;;;0.08;0.08;;;;;;;;;;5113793;28;20208;-67
2021/04/21 13:15:38;;;;;;;0.10;0.10;;;;;;;;;;5130747;27;20200;-66
2021/04/21 13:18:10;;;;;;;0.10;0.10;;;;;;;;;;5122120;27;20203;-66
2021/04/21 13:20:36;;;;;;;0.10;0.10;;;;;;;;;;5118914;28;20222;-66
2021/04/21 13:23:10;;;;;;;0.10;0.10;;;;;;;;;;5116724;28;20263;-66
2021/04/21 13:25:36;;;;;;;0.10;0.10;;;;;;;;;;5115551;28;20553;-67
2021/04/21 13:28:13;;;;;;;0.10;0.10;;;;;;;;;;5113498;28;20204;-67
2021/04/21 13:30:39;;;;;;;0.00;0.00;;;;;;;;;;5121586;28;20194;-67
2021/04/21 13:33:06;;;;;;;0.00;0.00;;;;;;;;;;5117587;28;20251;-67
2021/04/21 13:35:32;;;;;;;0.10;0.10;;;;;;;;;;5109178;28;20244;-66
2021/04/21 13:37:58;;;;;;;3.28;3.17;;;;;;;;;;5119852;28;20198;-67
2021/04/21 13:40:24;;;;;;;0.05;0.05;;;;;;;;;;5117237;28;20316;-67
2021/04/21 13:42:53;;;;;;;0.10;0.10;;;;;;;;;;5126436;28;20226;-67
2021/04/21 13:45:19;;;;;;;0.10;0.10;;;;;;;;;;5128460;27;20306;-66
2021/04/21 13:47:47;;;;;;;0.00;0.00;;;;;;;;;;5130295;27;20205;-65
2021/04/21 13:50:15;;;;;;;0.68;0.68;;;;;;;;;;5128370;27;20369;-66
2021/04/21 13:52:41;;;;;;;0.10;0.10;;;;;;;;;;5122165;28;20230;-67
2021/04/21 13:55:07;;;;;;;0.10;0.10;;;;;;;;;;5116379;28;20216;-67
2021/04/21 13:57:33;;;;;;;0.00;0.00;;;;;;;;;;5128605;27;20202;-66
2021/04/21 13:59:59;;;;;;;0.10;0.10;;;;;;;;;;5119280;28;20221;-67
2021/04/21 14:02:25;;;;;;;0.03;0.03;;;;;;;;;;5112768;28;20547;-67
2021/04/21 14:04:53;;;;;;;0.10;0.10;;;;;;;;;;5125136;27;20507;-67
2021/04/21 14:07:19;;;;;;;0.10;0.10;;;;;;;;;;5123302;27;20210;-68
2021/04/21 14:09:45;;;;;;;0.00;0.00;;;;;;;;;;5114579;28;20240;-67
2021/04/21 14:12:12;;;;;;;0.10;0.10;;;;;;;;;;5115893;27;20203;-68
2021/04/21 14:14:38;;;;;;;0.03;0.03;;;;;;;;;;5123514;28;20207;-66
2021/04/21 14:17:05;;;;;;;0.03;0.03;;;;;;;;;;5114242;28;20544;-69
2021/04/21 14:19:31;;;;;;;0.00;0.00;;;;;;;;;;5113752;28;20486;-69
2021/04/21 14:21:58;;;;;;;0.03;0.03;;;;;;;;;;5114105;28;20216;-67
2021/04/21 14:24:24;;;;;;;0.00;0.00;;;;;;;;;;5111833;28;20292;-68
2021/04/21 14:26:50;;;;;;;1.23;1.13;;;;;;;;;;5123533;28;20208;-66
2021/04/21 14:29:16;;;;;;;0.10;0.10;;;;;;;;;;5117034;27;20212;-68
2021/04/21 14:31:42;;;;;;;0.00;0.00;;;;;;;;;;5116602;28;20200;-69
2021/04/21 14:34:08;;;;;;;0.10;0.10;;;;;;;;;;5132608;27;20197;-68
2021/04/21 14:36:39;;;;;;;0.10;0.10;;;;;;;;;;5135465;27;20263;-68
2021/04/21 14:39:06;;;;;;;0.30;0.30;;;;;;;;;;5118579;27;20257;-67
2021/04/21 14:41:34;;;;;;;0.07;0.07;;;;;;;;;;5126169;27;20308;-64
2021/04/21 14:44:00;;;;;;;0.10;0.10;;;;;;;;;;5125218;28;20224;-68
2021/04/21 14:46:26;;;;;;;0.10;0.10;;;;;;;;;;5125014;28;20238;-66
2021/04/21 14:48:52;;;;;;;0.10;0.10;;;;;;;;;;5116888;28;20257;-65
2021/04/21 14:51:18;;;;;;;0.00;0.00;;;;;;;;;;5111241;28;20239;-66
2021/04/21 14:53:43;;;;;;;0.10;0.10;;;;;;;;;;5118209;27;20202;-65
2021/04/21 14:56:10;;;;;;;0.10;0.10;;;;;;;;;;5129569;27;20230;-63